LHPR/QGY METAR and TAF weather

Enter ICAO airport designator
Station Type Date Time Source
LHPR METAR 2020/01/26 03:45 UTC NOAA

LHPR 260345Z AUTO 11005KT 1000 R30/1300D BR VV002 M02/M02 Q1023


Station Type Date Time Source
LHPR Decoded METAR 2020/01/26 03:45 UTC NOAA

Station name not available
Jan 25, 2020 - 10:45 PM EST / 2020.01.26 0345 UTC
Wind: from the ESE (110 degrees) at 6 MPH (5 KT):0
Visibility: less than 1 mile:0
Sky conditions: obscured
Weather: mist
Temperature: 28 F (-2 C)
Windchill: 21 F (-6 C):1
Dew Point: 28 F (-2 C)
Relative Humidity: 100%
Pressure (altimeter): 30.21 in. Hg (1023 hPa)
ob: LHPR 260345Z AUTO 11005KT 1000 R30/1300D BR VV002 M02/M02 Q1023
cycle: 4

Station Type Date Time Source
LHPR TAF UTC NOAA

Error!

Example: see airport list